createdAt,value
2019-05-29T00:00:10.261Z,99769.91
2019-05-29T00:02:39.246Z,99770.47
2019-05-29T00:05:08.353Z,99771.81
2019-05-29T00:07:37.460Z,99770.77
2019-05-29T00:10:08.890Z,99769.42
2019-05-29T00:12:37.500Z,99775.39
2019-05-29T00:15:06.612Z,99772.11
2019-05-29T00:17:36.681Z,99772.70
2019-05-29T00:20:06.468Z,99774.14
2019-05-29T00:22:35.565Z,99775.45
2019-05-29T00:25:10.698Z,99778.80
2019-05-29T00:27:39.999Z,99779.44
2019-05-29T00:30:09.028Z,99787.40
2019-05-29T00:32:38.534Z,99787.28
2019-05-29T00:35:08.487Z,99787.55
2019-05-29T00:37:37.588Z,99790.15
2019-05-29T00:40:08.978Z,99794.35
2019-05-29T00:42:38.169Z,99792.63
2019-05-29T00:45:09.556Z,99789.55
2019-05-29T00:47:38.768Z,99780.80
2019-05-29T00:50:09.968Z,99774.52
2019-05-29T00:52:39.009Z,99779.97
2019-05-29T00:55:08.721Z,99776.81
2019-05-29T00:57:37.916Z,99785.73
2019-05-29T01:00:07.572Z,99785.34
2019-05-29T01:02:36.994Z,99784.09
2019-05-29T01:05:09.862Z,99784.09
2019-05-29T01:07:38.970Z,99791.36
2019-05-29T01:10:10.338Z,99792.79
2019-05-29T01:12:39.691Z,99792.79
2019-05-29T01:15:08.833Z,99781.58
2019-05-29T01:17:37.926Z,99783.10
2019-05-29T01:20:07.255Z,99785.22
2019-05-29T01:22:36.546Z,99785.03
2019-05-29T01:25:06.240Z,99787.82
2019-05-29T01:27:35.355Z,99790.64
2019-05-29T01:30:06.083Z,99795.62
2019-05-29T01:32:35.215Z,99794.10
2019-05-29T01:35:06.433Z,99800.81
2019-05-29T01:37:35.451Z,99797.64
2019-05-29T01:40:19.294Z,99798.80
2019-05-29T01:42:36.477Z,99805.78
2019-05-29T01:45:08.482Z,99803.39
2019-05-29T01:47:37.801Z,99807.33
2019-05-29T01:50:08.155Z,99810.65
2019-05-29T01:52:37.193Z,99811.33
2019-05-29T01:55:07.966Z,99811.05
2019-05-29T01:57:36.980Z,99815.55
2019-05-29T02:00:09.441Z,99819.30
2019-05-29T02:02:38.470Z,99824.18
2019-05-29T02:05:07.502Z,99828.38
2019-05-29T02:07:36.558Z,99827.81
2019-05-29T02:10:07.832Z,99837.40
2019-05-29T02:12:37.860Z,99831.84
2019-05-29T02:15:23.104Z,99844.73
2019-05-29T02:17:38.777Z,99852.22
2019-05-29T02:20:08.755Z,99857.03
2019-05-29T02:22:37.771Z,99864.78
2019-05-29T02:25:08.746Z,99871.95
2019-05-29T02:27:37.780Z,99870.55
2019-05-29T02:30:09.372Z,99877.52
2019-05-29T02:32:38.434Z,99884.70
2019-05-29T02:35:07.997Z,99887.73
2019-05-29T02:37:37.034Z,99886.17
2019-05-29T02:40:07.765Z,99895.32
2019-05-29T02:42:36.781Z,99895.34
2019-05-29T02:45:08.789Z,99893.98
2019-05-29T02:47:37.813Z,99897.02
2019-05-29T02:50:10.054Z,99906.05
2019-05-29T02:52:39.147Z,99909.06
2019-05-29T02:55:08.617Z,99915.06
2019-05-29T02:57:37.639Z,99925.66
2019-05-29T03:00:08.335Z,99924.27
2019-05-29T03:02:37.429Z,99931.81
2019-05-29T03:05:07.540Z,99933.31
2019-05-29T03:07:36.945Z,99936.22
2019-05-29T03:10:09.388Z,99934.18
2019-05-29T03:12:38.718Z,99951.39
2019-05-29T03:15:07.965Z,99951.84
2019-05-29T03:17:37.221Z,99954.85
2019-05-29T03:20:06.936Z,99959.50
2019-05-29T03:22:35.947Z,99957.42
2019-05-29T03:25:07.289Z,99972.53
2019-05-29T03:27:38.053Z,99983.39
2019-05-29T03:30:08.037Z,99981.17
2019-05-29T03:32:45.555Z,99984.39
2019-05-29T03:35:08.016Z,100001.05
2019-05-29T03:37:38.692Z,99999.79
2019-05-29T03:40:08.284Z,100010.22
2019-05-29T03:42:39.071Z,100007.97
2019-05-29T03:45:08.047Z,100022.19
2019-05-29T03:47:37.288Z,100026.30
2019-05-29T03:50:08.174Z,100036.55
2019-05-29T03:52:39.010Z,100044.26
2019-05-29T03:55:08.086Z,100059.95
2019-05-29T03:57:38.074Z,100078.78
2019-05-29T04:00:08.942Z,100080.95
2019-05-29T04:02:38.460Z,100084.84
2019-05-29T04:05:07.882Z,100084.49
2019-05-29T04:07:38.184Z,100102.67
2019-05-29T04:10:07.729Z,100097.31
2019-05-29T04:12:38.069Z,100112.67
2019-05-29T04:15:07.511Z,100104.59
2019-05-29T04:17:37.885Z,100118.79
2019-05-29T04:20:07.318Z,100113.27
2019-05-29T04:22:45.794Z,100131.81
2019-05-29T04:25:15.164Z,100140.74
2019-05-29T04:27:44.261Z,100131.87
2019-05-29T04:30:13.590Z,100137.88
2019-05-29T04:32:42.620Z,100137.09
2019-05-29T04:35:11.811Z,100157.88
2019-05-29T04:37:40.989Z,100156.36
2019-05-29T04:40:10.307Z,100168.22
2019-05-29T04:42:40.034Z,100164.94
2019-05-29T04:45:09.686Z,100178.22
2019-05-29T04:47:39.572Z,100175.95
2019-05-29T04:50:09.139Z,100184.50
2019-05-29T04:52:39.858Z,100192.42
2019-05-29T04:55:09.035Z,100189.81
2019-05-29T04:57:39.257Z,100190.55
2019-05-29T05:00:08.560Z,100194.49
2019-05-29T05:02:37.649Z,100185.56
2019-05-29T05:05:06.800Z,100210.63
2019-05-29T05:07:35.808Z,100206.36
2019-05-29T05:10:06.065Z,100215.80
2019-05-29T05:12:35.718Z,100219.38
2019-05-29T05:15:05.801Z,100230.52
2019-05-29T05:17:36.047Z,100231.16
2019-05-29T05:20:05.804Z,100242.64
2019-05-29T05:22:35.938Z,100248.34
2019-05-29T05:25:06.679Z,100252.89
2019-05-29T05:27:36.438Z,100262.05
2019-05-29T05:30:09.077Z,100261.13
2019-05-29T05:32:38.969Z,100266.92
2019-05-29T05:35:08.222Z,100283.98
2019-05-29T05:37:37.396Z,100284.25
2019-05-29T05:40:16.301Z,100280.95
2019-05-29T05:43:21.021Z,100294.02
2019-05-29T05:48:55.177Z,100293.63
2019-05-29T05:55:10.597Z,100302.19
2019-05-29T05:57:54.914Z,100314.48
2019-05-29T06:00:54.979Z,100330.52
2019-05-29T06:03:56.488Z,100327.02
2019-05-29T06:12:58.249Z,100353.92
2019-05-29T06:15:28.410Z,100355.00
2019-05-29T06:18:20.471Z,100357.36
2019-05-29T06:20:38.938Z,100354.25
2019-05-29T06:23:13.499Z,100357.48
2019-05-29T06:25:48.648Z,100365.66
2019-05-29T06:28:18.564Z,100362.20
2019-05-29T06:30:51.774Z,100364.86
2019-05-29T06:33:39.492Z,100365.59
2019-05-29T06:36:09.498Z,100379.83
2019-05-29T06:38:45.457Z,100382.69
2019-05-29T06:41:16.342Z,100390.07
2019-05-29T06:44:14.160Z,100388.36
2019-05-29T06:46:47.385Z,100389.33
2019-05-29T06:49:29.112Z,100392.15
2019-05-29T06:52:03.431Z,100411.60
2019-05-29T06:54:35.765Z,100405.78
2019-05-29T06:57:19.240Z,100416.15
2019-05-29T07:00:13.665Z,100418.60
2019-05-29T07:02:42.639Z,100427.40
2019-05-29T07:05:12.291Z,100442.73
2019-05-29T07:07:47.968Z,100442.55
2019-05-29T07:13:56.033Z,100444.88
2019-05-29T07:16:43.841Z,100453.58
2019-05-29T07:19:28.153Z,100459.79
2019-05-29T07:22:09.596Z,100469.53
2019-05-29T07:25:02.634Z,100483.06
2019-05-29T07:27:32.707Z,100481.50
2019-05-29T07:30:03.107Z,100484.22
2019-05-29T07:32:56.428Z,100485.39
2019-05-29T07:35:26.340Z,100490.27
2019-05-29T07:38:26.767Z,100491.21
2019-05-29T07:40:56.653Z,100502.17
2019-05-29T07:43:48.133Z,100500.99
2019-05-29T07:52:13.108Z,100524.06
2019-05-29T07:54:43.655Z,100529.39
2019-05-29T07:57:18.363Z,100535.59
2019-05-29T07:59:48.832Z,100541.92
2019-05-29T08:02:18.524Z,100550.11
2019-05-29T08:05:06.394Z,100546.17
2019-05-29T08:07:35.982Z,100549.89
2019-05-29T08:10:07.807Z,100562.36
2019-05-29T08:12:41.724Z,100554.00
2019-05-29T08:15:08.966Z,100562.30
2019-05-29T08:17:39.982Z,100564.56
2019-05-29T08:20:10.074Z,100573.54
2019-05-29T08:22:42.390Z,100577.55
2019-05-29T08:25:13.202Z,100573.32
2019-05-29T08:27:50.852Z,100574.24
2019-05-29T08:30:20.823Z,100570.59
2019-05-29T08:32:51.298Z,100595.64
2019-05-29T08:35:20.942Z,100599.77
2019-05-29T08:37:52.477Z,100592.25
2019-05-29T08:40:53.781Z,100598.99
2019-05-29T08:46:36.457Z,100602.98
2019-05-29T08:49:41.682Z,100607.58
2019-05-29T08:52:19.753Z,100614.75
2019-05-29T08:55:07.537Z,100608.73
2019-05-29T09:00:55.713Z,100619.41
2019-05-29T09:03:27.927Z,100620.70
2019-05-29T09:06:08.564Z,100625.17
2019-05-29T09:08:29.861Z,100631.61
2019-05-29T09:10:59.368Z,100643.97
2019-05-29T09:13:31.618Z,100637.92
2019-05-29T09:16:01.020Z,100642.06
2019-05-29T09:18:32.493Z,100652.12
2019-05-29T09:21:04.593Z,100651.02
2019-05-29T09:23:45.629Z,100653.41
2019-05-29T09:26:37.302Z,100648.70
2019-05-29T09:29:23.803Z,100663.72
2019-05-29T09:32:49.676Z,100661.17
2019-05-29T09:35:19.816Z,100664.52
2019-05-29T09:37:51.476Z,100671.52
2019-05-29T09:40:28.895Z,100671.73
2019-05-29T09:43:31.019Z,100672.31
2019-05-29T09:46:20.166Z,100678.97
2019-05-29T09:49:03.032Z,100677.19
2019-05-29T09:51:39.244Z,100686.09
2019-05-29T09:54:38.255Z,100691.36
2019-05-29T09:57:07.458Z,100692.37
2019-05-29T09:59:39.803Z,100706.43
2019-05-29T10:06:13.023Z,100701.02
2019-05-29T10:08:47.735Z,100717.34
2019-05-29T10:12:39.256Z,100720.95
2019-05-29T10:14:30.790Z,100719.25
2019-05-29T10:17:02.724Z,100723.48
2019-05-29T10:22:47.224Z,100735.68
2019-05-29T10:25:38.310Z,100737.59
2019-05-29T10:28:15.723Z,100751.23
2019-05-29T10:30:52.745Z,100748.63
2019-05-29T10:36:22.713Z,100749.66
2019-05-29T10:38:55.422Z,100756.75
2019-05-29T10:41:29.123Z,100764.27
2019-05-29T10:44:26.462Z,100762.55
2019-05-29T10:47:00.577Z,100769.25
2019-05-29T10:53:34.533Z,100780.46
2019-05-29T10:56:07.918Z,100774.28
2019-05-29T10:59:12.344Z,100776.84
2019-05-29T11:02:01.578Z,100779.73
2019-05-29T11:04:49.477Z,100785.16
2019-05-29T11:10:30.326Z,100787.15
2019-05-29T11:13:16.884Z,100785.99
2019-05-29T11:16:29.970Z,100791.33
2019-05-29T11:18:35.310Z,100793.30
2019-05-29T11:21:23.498Z,100795.00
2019-05-29T11:24:00.626Z,100798.89
2019-05-29T11:26:35.880Z,100807.70
2019-05-29T11:29:15.885Z,100806.53
2019-05-29T11:31:39.495Z,100808.59
2019-05-29T11:34:09.295Z,100790.99
2019-05-29T11:36:38.944Z,100807.25
2019-05-29T11:39:18.452Z,100808.08
2019-05-29T11:41:50.862Z,100807.83
2019-05-29T11:44:39.880Z,100809.25
2019-05-29T11:46:59.254Z,100814.06
2019-05-29T11:49:32.504Z,100811.12
2019-05-29T11:52:22.938Z,100824.05
2019-05-29T11:54:33.705Z,100816.77
2019-05-29T11:57:10.266Z,100822.91
2019-05-29T11:59:44.665Z,100823.77
2019-05-29T12:02:16.549Z,100831.98
2019-05-29T12:04:55.155Z,100833.97
2019-05-29T12:07:36.414Z,100836.06
2019-05-29T12:10:12.882Z,100832.28
2019-05-29T12:12:41.698Z,100828.08
2019-05-29T12:15:25.305Z,100829.45
2019-05-29T12:18:22.212Z,100831.86
2019-05-29T12:20:40.539Z,100839.19
2019-05-29T12:23:25.682Z,100831.08
2019-05-29T12:25:49.979Z,100831.08
2019-05-29T12:32:01.712Z,100849.22
2019-05-29T12:35:07.435Z,100842.02
2019-05-29T12:38:08.620Z,100842.23
2019-05-29T12:41:28.145Z,100844.55
2019-05-29T12:53:01.721Z,100854.25
2019-05-29T12:55:25.896Z,100860.11
2019-05-29T12:57:56.061Z,100852.77
2019-05-29T13:00:27.362Z,100857.39
2019-05-29T13:02:58.694Z,100865.08
2019-05-29T13:05:28.130Z,100868.19
2019-05-29T13:08:09.186Z,100859.89
2019-05-29T13:10:40.443Z,100862.25
2019-05-29T13:13:11.203Z,100867.96
2019-05-29T13:15:41.286Z,100863.27
2019-05-29T13:18:11.409Z,100873.28
2019-05-29T13:20:45.442Z,100868.08
2019-05-29T13:26:07.491Z,100871.58
2019-05-29T13:28:38.098Z,100867.76
2019-05-29T13:31:08.248Z,100872.91
2019-05-29T13:33:37.917Z,100870.36
2019-05-29T13:36:08.354Z,100860.49
2019-05-29T13:38:38.345Z,100868.05
2019-05-29T13:41:18.321Z,100874.32
2019-05-29T13:43:49.796Z,100870.25
2019-05-29T13:46:19.508Z,100876.48
2019-05-29T13:48:51.676Z,100871.31
2019-05-29T13:51:22.577Z,100876.86
2019-05-29T13:54:02.694Z,100881.91
2019-05-29T13:56:24.332Z,100875.61
2019-05-29T13:59:04.918Z,100875.62
2019-05-29T14:01:34.605Z,100885.88
2019-05-29T14:04:05.114Z,100877.45
2019-05-29T14:06:34.450Z,100889.38
2019-05-29T14:09:05.255Z,100884.02
2019-05-29T14:11:34.373Z,100891.72
2019-05-29T14:14:07.372Z,100890.68
2019-05-29T14:16:35.159Z,100886.41
2019-05-29T14:19:04.784Z,100881.45
2019-05-29T14:21:33.890Z,100877.36
2019-05-29T14:24:13.904Z,100886.50
2019-05-29T14:26:33.678Z,100889.89
2019-05-29T14:29:03.517Z,100884.43
2019-05-29T14:31:32.690Z,100885.06
2019-05-29T14:34:02.936Z,100880.20
2019-05-29T14:36:32.104Z,100885.81
2019-05-29T14:39:01.583Z,100891.31
2019-05-29T14:41:30.732Z,100881.99
2019-05-29T14:43:59.851Z,100888.77
2019-05-29T14:46:28.880Z,100893.64
2019-05-29T14:48:57.996Z,100898.48
2019-05-29T14:51:27.227Z,100894.22
2019-05-29T14:53:56.314Z,100906.83
2019-05-29T14:56:25.417Z,100912.32
2019-05-29T14:58:54.525Z,100918.83
2019-05-29T15:01:23.528Z,100917.20
2019-05-29T15:03:52.578Z,100924.70
2019-05-29T15:06:21.621Z,100925.80
2019-05-29T15:08:50.640Z,100924.69
2019-05-29T15:11:19.718Z,100928.16
2019-05-29T15:13:48.739Z,100927.99
2019-05-29T15:16:17.759Z,100926.75
2019-05-29T15:18:46.776Z,100932.34
2019-05-29T15:21:15.785Z,100937.95
2019-05-29T15:23:44.849Z,100932.91
2019-05-29T15:26:13.906Z,100925.83
2019-05-29T15:28:42.995Z,100942.39
2019-05-29T15:31:12.420Z,100930.80
2019-05-29T15:33:41.483Z,100936.52
2019-05-29T15:36:10.646Z,100933.97
2019-05-29T15:38:39.843Z,100938.52
2019-05-29T15:41:08.949Z,100948.28
2019-05-29T15:43:38.135Z,100951.35
2019-05-29T15:46:09.508Z,100964.79
2019-05-29T15:48:37.987Z,100967.57
2019-05-29T15:51:07.098Z,100967.22
2019-05-29T15:53:36.124Z,100979.48
2019-05-29T15:56:18.278Z,100978.42
2019-05-29T15:58:35.916Z,100973.94
2019-05-29T16:01:04.950Z,100981.20
2019-05-29T16:03:33.980Z,100983.38
2019-05-29T16:06:03.091Z,100983.09
2019-05-29T16:08:32.205Z,100983.84
2019-05-29T16:11:01.223Z,100986.63
2019-05-29T16:13:30.274Z,100993.91
2019-05-29T16:15:59.294Z,100996.11
2019-05-29T16:18:29.759Z,100989.39
2019-05-29T16:20:58.911Z,101001.83
2019-05-29T16:23:34.979Z,100995.98
2019-05-29T16:25:58.727Z,101007.75
2019-05-29T16:28:27.786Z,100995.88
2019-05-29T16:30:56.880Z,101002.31
2019-05-29T16:33:25.962Z,101013.47
2019-05-29T16:35:54.998Z,101017.39
2019-05-29T16:38:24.001Z,101010.00
2019-05-29T16:40:53.029Z,101013.41
2019-05-29T16:43:22.363Z,101010.17
2019-05-29T16:45:51.550Z,101009.42
2019-05-29T16:48:20.705Z,101015.95
2019-05-29T16:50:49.784Z,101016.51
2019-05-29T16:53:18.966Z,101015.11
2019-05-29T16:55:53.884Z,101021.23
2019-05-29T16:58:19.760Z,101023.41
2019-05-29T17:00:49.280Z,101022.03
2019-05-29T17:03:19.614Z,101021.88
2019-05-29T17:05:48.844Z,101031.36
2019-05-29T17:08:18.146Z,101031.36
2019-05-29T17:10:47.164Z,101027.45
2019-05-29T17:13:16.586Z,101032.83
2019-05-29T17:15:45.768Z,101031.54
2019-05-29T17:18:14.822Z,101041.64
2019-05-29T17:20:45.345Z,101043.66
2019-05-29T17:23:15.073Z,101050.16
2019-05-29T17:25:44.518Z,101058.84
2019-05-29T17:28:15.022Z,101065.39
2019-05-29T17:30:44.133Z,101069.41
2019-05-29T17:33:13.280Z,101063.66
2019-05-29T17:35:42.294Z,101072.03
2019-05-29T17:38:11.395Z,101072.09
2019-05-29T17:40:41.040Z,101075.84
2019-05-29T17:43:10.261Z,101076.23
2019-05-29T17:45:39.604Z,101074.42
2019-05-29T17:48:08.771Z,101072.66
2019-05-29T17:50:37.864Z,101075.48
2019-05-29T17:53:06.933Z,101081.04
2019-05-29T17:55:36.022Z,101079.52
2019-05-29T17:58:05.121Z,101084.36
2019-05-29T18:00:34.216Z,101089.95
2019-05-29T18:03:03.247Z,101096.78
2019-05-29T18:05:32.282Z,101096.78
2019-05-29T18:08:01.931Z,101101.03
2019-05-29T18:10:31.104Z,101101.98
2019-05-29T18:13:00.390Z,101116.15
2019-05-29T18:15:29.540Z,101121.01
2019-05-29T18:17:58.580Z,101122.63
2019-05-29T18:20:27.952Z,101129.80
2019-05-29T18:22:57.003Z,101131.48
2019-05-29T18:25:26.106Z,101135.42
2019-05-29T18:27:55.144Z,101135.33
2019-05-29T18:30:24.589Z,101145.66
2019-05-29T18:32:53.636Z,101151.25
2019-05-29T18:35:22.976Z,101148.63
2019-05-29T18:37:52.094Z,101151.16
2019-05-29T18:40:22.352Z,101161.77
2019-05-29T18:42:51.594Z,101162.27
2019-05-29T18:45:22.857Z,101173.20
2019-05-29T18:47:51.470Z,101174.47
2019-05-29T18:50:21.508Z,101181.95
2019-05-29T18:52:50.656Z,101191.42
2019-05-29T18:55:20.763Z,101197.33
2019-05-29T18:57:49.904Z,101202.82
2019-05-29T19:00:19.312Z,101206.52
2019-05-29T19:02:48.318Z,101208.24
2019-05-29T19:05:17.354Z,101209.72
2019-05-29T19:07:46.491Z,101213.09
2019-05-29T19:10:15.615Z,101212.91
2019-05-29T19:12:44.653Z,101221.59
2019-05-29T19:15:14.537Z,101227.13
2019-05-29T19:17:43.646Z,101232.67
2019-05-29T19:20:13.465Z,101227.55
2019-05-29T19:22:42.566Z,101238.86
2019-05-29T19:25:11.667Z,101245.73
2019-05-29T19:27:42.233Z,101245.46
2019-05-29T19:30:11.906Z,101244.25
2019-05-29T19:32:41.027Z,101250.72
2019-05-29T19:35:10.116Z,101258.39
2019-05-29T19:37:39.208Z,101263.16
2019-05-29T19:40:08.386Z,101271.19
2019-05-29T19:42:37.411Z,101273.09
2019-05-29T19:45:09.811Z,101264.27
2019-05-29T19:47:38.951Z,101270.60
2019-05-29T19:50:11.174Z,101270.80
2019-05-29T19:52:39.417Z,101273.22
2019-05-29T19:55:08.574Z,101275.03
2019-05-29T19:57:52.640Z,101278.47
2019-05-29T20:00:12.794Z,101278.23
2019-05-29T20:02:41.903Z,101282.89
2019-05-29T20:05:11.100Z,101295.45
2019-05-29T20:07:40.199Z,101289.77
2019-05-29T20:10:09.607Z,101290.44
2019-05-29T20:12:38.640Z,101301.74
2019-05-29T20:15:07.827Z,101296.35
2019-05-29T20:17:36.845Z,101305.44
2019-05-29T20:20:08.459Z,101305.95
2019-05-29T20:22:38.967Z,101307.40
2019-05-29T20:25:08.444Z,101304.83
2019-05-29T20:27:38.569Z,101310.57
2019-05-29T20:30:11.392Z,101312.88
2019-05-29T20:32:40.537Z,101312.70
2019-05-29T20:35:09.574Z,101317.53
2019-05-29T20:37:38.591Z,101329.59
2019-05-29T20:40:07.729Z,101331.53
2019-05-29T20:42:36.764Z,101334.84
2019-05-29T20:45:10.490Z,101336.48
2019-05-29T20:47:40.039Z,101340.86
2019-05-29T20:50:09.597Z,101338.73
2019-05-29T20:52:39.451Z,101344.63
2019-05-29T20:55:08.627Z,101342.00
2019-05-29T20:57:38.080Z,101351.40
2019-05-29T21:00:11.783Z,101351.38
2019-05-29T21:02:42.322Z,101351.10
2019-05-29T21:05:11.678Z,101351.61
2019-05-29T21:07:41.112Z,101361.88
2019-05-29T21:10:10.345Z,101355.03
2019-05-29T21:12:44.354Z,101355.40
2019-05-29T21:15:10.606Z,101359.02
2019-05-29T21:17:40.017Z,101363.59
2019-05-29T21:20:09.305Z,101369.80
2019-05-29T21:22:38.656Z,101379.56
2019-05-29T21:25:12.825Z,101380.53
2019-05-29T21:27:43.241Z,101381.58
2019-05-29T21:30:11.041Z,101386.90
2019-05-29T21:32:40.338Z,101392.73
2019-05-29T21:35:10.501Z,101384.32
2019-05-29T21:37:40.366Z,101399.88
2019-05-29T21:40:10.276Z,101397.69
2019-05-29T21:42:40.552Z,101407.13
2019-05-29T21:45:09.831Z,101409.47
2019-05-29T21:47:39.065Z,101406.98
2019-05-29T21:50:08.717Z,101407.77
2019-05-29T21:52:37.765Z,101412.25
2019-05-29T21:55:07.398Z,101414.58
2019-05-29T21:57:37.777Z,101415.07
2019-05-29T22:00:12.746Z,101420.00
2019-05-29T22:02:42.319Z,101424.12
2019-05-29T22:05:11.676Z,101432.14
2019-05-29T22:07:40.822Z,101435.73
2019-05-29T22:10:09.814Z,101441.61
2019-05-29T22:12:38.828Z,101443.87
2019-05-29T22:15:08.021Z,101439.55
2019-05-29T22:17:37.124Z,101443.63
2019-05-29T22:20:09.123Z,101444.17
2019-05-29T22:22:38.523Z,101450.41
2019-05-29T22:25:08.342Z,101450.01
2019-05-29T22:27:38.307Z,101449.22
2019-05-29T22:30:08.107Z,101452.77
2019-05-29T22:32:37.159Z,101449.26
2019-05-29T22:35:07.153Z,101446.20
2019-05-29T22:37:36.164Z,101451.95
2019-05-29T22:40:07.853Z,101454.66
2019-05-29T22:42:36.880Z,101446.81
2019-05-29T22:45:06.646Z,101454.86
2019-05-29T22:47:35.681Z,101449.54
2019-05-29T22:50:07.495Z,101452.23
2019-05-29T22:52:36.592Z,101453.13
2019-05-29T22:55:06.972Z,101452.31
2019-05-29T22:57:35.995Z,101456.80
2019-05-29T23:00:07.415Z,101461.22
2019-05-29T23:02:36.592Z,101462.14
2019-05-29T23:05:08.679Z,101457.75
2019-05-29T23:07:37.711Z,101458.26
2019-05-29T23:10:11.178Z,101458.77
2019-05-29T23:12:40.259Z,101464.48
2019-05-29T23:15:09.352Z,101463.71
2019-05-29T23:17:38.359Z,101469.42
2019-05-29T23:20:09.146Z,101478.33
2019-05-29T23:22:38.241Z,101476.58
2019-05-29T23:25:07.342Z,101477.05
2019-05-29T23:27:36.766Z,101482.84
2019-05-29T23:30:09.065Z,101484.63
2019-05-29T23:32:38.253Z,101487.73
2019-05-29T23:35:07.524Z,101486.44
2019-05-29T23:37:36.619Z,101483.81
2019-05-29T23:40:07.589Z,101480.67
2019-05-29T23:42:36.683Z,101485.99
2019-05-29T23:45:07.622Z,101483.38
2019-05-29T23:47:36.652Z,101489.59
2019-05-29T23:50:09.480Z,101492.23
2019-05-29T23:52:38.733Z,101498.00
2019-05-29T23:55:09.356Z,101506.39
2019-05-29T23:57:38.460Z,101505.98
